createdAt,value
2023-05-09T00:00:24.990Z,4.82
2023-05-09T00:02:51.566Z,4.97
2023-05-09T00:05:18.467Z,5.05
2023-05-09T00:07:44.972Z,4.50
2023-05-09T00:10:11.462Z,5.25
2023-05-09T00:12:38.039Z,4.97
2023-05-09T00:15:08.247Z,5.50
2023-05-09T00:17:36.357Z,5.18
2023-05-09T00:20:05.201Z,5.35
2023-05-09T00:22:31.687Z,5.85
2023-05-09T00:24:58.241Z,5.38
2023-05-09T00:27:24.724Z,5.30
2023-05-09T00:29:51.206Z,5.55
2023-05-09T00:32:17.693Z,5.15
2023-05-09T00:34:45.244Z,5.70
2023-05-09T00:37:11.739Z,6.03
2023-05-09T00:39:38.214Z,6.35
2023-05-09T00:42:04.759Z,6.07
2023-05-09T00:44:31.255Z,6.72
2023-05-09T00:46:58.080Z,6.53
2023-05-09T00:49:24.611Z,6.93
2023-05-09T00:51:52.655Z,7.07
2023-05-09T00:54:19.147Z,6.57
2023-05-09T00:56:45.956Z,6.97
2023-05-09T00:59:12.537Z,6.60
2023-05-09T01:01:39.022Z,6.72
2023-05-09T01:04:05.752Z,6.22
2023-05-09T01:07:03.027Z,5.45
2023-05-09T01:10:06.488Z,5.78
2023-05-09T01:12:52.114Z,5.90
2023-05-09T01:15:36.471Z,6.55
2023-05-09T01:18:16.072Z,6.47
2023-05-09T01:21:08.910Z,6.28
2023-05-09T01:23:59.346Z,6.10
2023-05-09T01:27:30.106Z,6.32
2023-05-09T01:30:04.486Z,6.30
2023-05-09T01:32:36.282Z,6.38
2023-05-09T01:35:05.985Z,6.70
2023-05-09T01:37:36.525Z,6.65
2023-05-09T01:40:16.665Z,6.53
2023-05-09T01:42:59.871Z,6.88
2023-05-09T01:45:28.581Z,6.55
2023-05-09T01:47:58.072Z,7.20
2023-05-09T01:50:26.949Z,7.72
2023-05-09T01:52:56.759Z,7.93
2023-05-09T01:55:28.396Z,7.35
2023-05-09T01:57:58.821Z,6.95
2023-05-09T02:00:26.365Z,7.20
2023-05-09T02:02:53.528Z,7.38
2023-05-09T02:05:26.385Z,6.47
2023-05-09T02:07:57.192Z,7.72
2023-05-09T02:10:27.602Z,7.40
2023-05-09T02:12:55.440Z,8.02
2023-05-09T02:15:22.792Z,6.45
2023-05-09T02:17:49.249Z,6.68
2023-05-09T02:20:15.771Z,7.35
2023-05-09T02:22:44.018Z,7.82
2023-05-09T02:25:15.433Z,7.55
2023-05-09T02:27:46.198Z,7.25
2023-05-09T02:30:25.040Z,7.75
2023-05-09T02:33:04.384Z,7.93
2023-05-09T02:35:31.399Z,7.68
2023-05-09T02:38:00.002Z,7.78
2023-05-09T02:40:29.314Z,8.48
2023-05-09T02:42:56.651Z,8.10
2023-05-09T02:45:23.442Z,8.05
2023-05-09T02:47:49.971Z,8.20
2023-05-09T02:50:17.853Z,7.78
2023-05-09T02:52:44.462Z,9.07
2023-05-09T02:55:11.055Z,8.60
2023-05-09T02:57:37.609Z,9.10
2023-05-09T03:00:12.052Z,8.15
2023-05-09T03:02:39.445Z,8.23
2023-05-09T03:05:06.522Z,8.25
2023-05-09T03:07:33.023Z,7.95
2023-05-09T03:09:59.503Z,8.05
2023-05-09T03:12:26.414Z,9.10
2023-05-09T03:14:52.889Z,9.00
2023-05-09T03:17:21.298Z,8.70
2023-05-09T03:19:48.470Z,8.00
2023-05-09T03:22:15.721Z,8.88
2023-05-09T03:24:42.269Z,8.10
2023-05-09T03:27:08.772Z,8.70
2023-05-09T03:29:35.340Z,8.15
2023-05-09T03:32:01.912Z,9.05
2023-05-09T03:34:28.357Z,7.93
2023-05-09T03:36:54.824Z,8.43
2023-05-09T03:39:21.313Z,8.40
2023-05-09T03:41:48.743Z,9.18
2023-05-09T03:44:15.798Z,8.15
2023-05-09T03:46:42.290Z,9.15
2023-05-09T03:49:08.961Z,9.57
2023-05-09T03:51:35.589Z,9.55
2023-05-09T03:54:02.126Z,10.55
2023-05-09T03:56:28.613Z,10.48
2023-05-09T03:58:55.233Z,11.10
2023-05-09T04:01:21.831Z,8.88
2023-05-09T04:03:48.358Z,9.70
2023-05-09T04:06:15.591Z,9.98
2023-05-09T04:08:42.436Z,9.60
2023-05-09T04:11:08.944Z,10.60
2023-05-09T04:13:35.495Z,10.15
2023-05-09T04:16:02.485Z,10.75
2023-05-09T04:18:28.977Z,11.02
2023-05-09T04:20:55.464Z,10.27
2023-05-09T04:23:22.003Z,11.80
2023-05-09T04:25:51.195Z,11.40
2023-05-09T04:28:17.926Z,13.32
2023-05-09T04:30:44.415Z,14.02
2023-05-09T04:33:11.259Z,12.75
2023-05-09T04:35:38.667Z,16.10
2023-05-09T04:38:05.223Z,12.57
2023-05-09T04:40:34.480Z,11.20
2023-05-09T04:43:01.028Z,9.65
2023-05-09T04:45:27.730Z,10.50
2023-05-09T04:47:54.218Z,10.70
2023-05-09T04:50:20.925Z,11.30
2023-05-09T04:52:47.379Z,10.98
2023-05-09T04:55:14.079Z,10.27
2023-05-09T04:57:40.797Z,11.70
2023-05-09T05:00:08.038Z,10.95
2023-05-09T05:02:34.621Z,10.88
2023-05-09T05:05:17.596Z,10.23
2023-05-09T05:07:46.351Z,11.02
2023-05-09T05:10:13.514Z,10.80
2023-05-09T05:12:40.067Z,10.90
2023-05-09T05:15:07.089Z,9.98
2023-05-09T05:17:34.013Z,10.27
2023-05-09T05:20:00.590Z,11.07
2023-05-09T05:22:27.067Z,9.60
2023-05-09T05:24:53.507Z,10.82
2023-05-09T05:27:20.003Z,10.60
2023-05-09T05:29:46.458Z,10.35
2023-05-09T05:32:13.014Z,10.20
2023-05-09T05:34:39.703Z,9.70
2023-05-09T05:37:06.420Z,10.00
2023-05-09T05:39:32.971Z,10.85
2023-05-09T05:41:59.497Z,11.10
2023-05-09T05:44:26.162Z,12.07
2023-05-09T05:46:52.685Z,11.90
2023-05-09T05:49:19.161Z,10.68
2023-05-09T05:51:45.646Z,14.00
2023-05-09T05:54:12.131Z,12.93
2023-05-09T05:56:38.607Z,11.90
2023-05-09T05:59:05.161Z,13.30
2023-05-09T06:01:31.655Z,14.52
2023-05-09T06:03:58.271Z,12.85
2023-05-09T06:06:27.021Z,17.25
2023-05-09T06:08:53.551Z,17.15
2023-05-09T06:11:20.045Z,15.57
2023-05-09T06:13:46.621Z,15.55
2023-05-09T06:16:19.235Z,15.40
2023-05-09T06:18:47.611Z,15.82
2023-05-09T06:21:14.317Z,15.23
2023-05-09T06:23:50.502Z,15.23
2023-05-09T06:26:27.328Z,14.38
2023-05-09T06:28:53.766Z,13.52
2023-05-09T06:31:20.323Z,13.93
2023-05-09T06:33:46.854Z,13.05
2023-05-09T06:36:13.451Z,13.75
2023-05-09T06:38:39.926Z,12.38
2023-05-09T06:41:06.432Z,11.82
2023-05-09T06:43:33.032Z,12.27
2023-05-09T06:45:59.611Z,11.77
2023-05-09T06:48:26.757Z,13.63
2023-05-09T06:50:53.327Z,11.18
2023-05-09T06:53:19.828Z,12.80
2023-05-09T06:55:46.590Z,12.75
2023-05-09T06:58:13.283Z,11.93
2023-05-09T07:00:39.749Z,11.30
2023-05-09T07:03:07.624Z,11.93
2023-05-09T07:05:34.654Z,11.75
2023-05-09T07:08:01.448Z,13.05
2023-05-09T07:10:28.041Z,10.23
2023-05-09T07:12:54.622Z,10.10
2023-05-09T07:15:36.862Z,11.98
2023-05-09T07:18:08.058Z,12.63
2023-05-09T07:20:34.736Z,17.13
2023-05-09T07:23:03.883Z,24.35
2023-05-09T07:25:30.659Z,13.75
2023-05-09T07:27:58.324Z,14.27
2023-05-09T07:30:25.196Z,14.75
2023-05-09T07:32:52.224Z,12.35
2023-05-09T07:35:20.356Z,12.73
2023-05-09T07:37:47.041Z,11.10
2023-05-09T07:40:14.228Z,12.23
2023-05-09T07:42:41.004Z,12.95
2023-05-09T07:45:08.079Z,12.88
2023-05-09T07:47:34.633Z,12.60
2023-05-09T07:50:01.201Z,12.65
2023-05-09T07:52:27.680Z,13.02
2023-05-09T07:54:54.564Z,12.88
2023-05-09T07:57:21.152Z,13.02
2023-05-09T07:59:47.667Z,13.80
2023-05-09T08:02:14.184Z,24.42
2023-05-09T08:04:41.471Z,15.13
2023-05-09T08:07:08.867Z,12.20
2023-05-09T08:09:35.457Z,13.57
2023-05-09T08:12:01.978Z,14.50
2023-05-09T08:14:28.459Z,12.52
2023-05-09T08:16:54.977Z,13.30
2023-05-09T08:19:23.517Z,11.98
2023-05-09T08:21:50.114Z,12.82
2023-05-09T08:24:16.551Z,13.20
2023-05-09T08:26:44.072Z,13.60
2023-05-09T08:29:10.624Z,13.57
2023-05-09T08:31:37.213Z,13.00
2023-05-09T08:34:03.800Z,12.80
2023-05-09T08:36:30.534Z,40.83
2023-05-09T08:38:57.045Z,15.85
2023-05-09T08:41:27.953Z,12.40
2023-05-09T08:43:55.685Z,13.82
2023-05-09T08:46:30.376Z,14.55
2023-05-09T08:48:58.039Z,14.55
2023-05-09T08:51:25.165Z,19.23
2023-05-09T08:53:52.284Z,12.85
2023-05-09T08:56:19.031Z,13.05
2023-05-09T08:58:45.832Z,12.90
2023-05-09T09:01:14.428Z,14.70
2023-05-09T09:03:47.488Z,11.05
2023-05-09T09:06:14.372Z,10.63
2023-05-09T09:08:42.262Z,11.48
2023-05-09T09:11:13.134Z,11.75
2023-05-09T09:13:42.213Z,11.68
2023-05-09T09:16:20.492Z,11.63
2023-05-09T09:18:47.606Z,11.80
2023-05-09T09:21:19.325Z,12.43
2023-05-09T09:23:48.140Z,11.98
2023-05-09T09:26:15.579Z,12.15
2023-05-09T09:28:42.931Z,11.55
2023-05-09T09:31:33.087Z,10.63
2023-05-09T09:34:03.369Z,10.95
2023-05-09T09:36:36.594Z,11.38
2023-05-09T09:39:05.659Z,11.27
2023-05-09T09:41:39.556Z,11.23
2023-05-09T09:44:15.086Z,11.27
2023-05-09T09:46:50.477Z,11.02
2023-05-09T09:49:23.160Z,11.75
2023-05-09T09:51:58.261Z,11.15
2023-05-09T09:54:29.043Z,10.77
2023-05-09T09:56:56.864Z,10.63
2023-05-09T09:59:25.683Z,10.20
2023-05-09T10:02:08.039Z,10.27
2023-05-09T10:04:42.562Z,11.25
2023-05-09T10:07:13.774Z,10.52
2023-05-09T10:09:41.350Z,10.55
2023-05-09T10:12:08.959Z,9.52
2023-05-09T10:14:39.312Z,10.52
2023-05-09T10:17:06.258Z,10.38
2023-05-09T10:19:35.756Z,12.32
2023-05-09T10:22:08.119Z,8.77
2023-05-09T10:24:46.893Z,8.20
2023-05-09T10:27:17.961Z,9.38
2023-05-09T10:29:57.327Z,9.50
2023-05-09T10:32:37.909Z,9.27
2023-05-09T10:35:11.534Z,8.90
2023-05-09T10:37:39.076Z,9.18
2023-05-09T10:40:06.855Z,9.80
2023-05-09T10:42:33.618Z,10.57
2023-05-09T10:45:01.682Z,10.07
2023-05-09T10:47:31.939Z,10.27
2023-05-09T10:49:59.437Z,15.00
2023-05-09T10:52:33.440Z,11.27
2023-05-09T10:55:05.183Z,11.00
2023-05-09T10:57:32.418Z,9.02
2023-05-09T11:00:00.431Z,8.38
2023-05-09T11:02:30.912Z,9.63
2023-05-09T11:05:17.083Z,8.73
2023-05-09T11:07:44.038Z,8.70
2023-05-09T11:10:18.265Z,9.63
2023-05-09T11:12:59.158Z,9.82
2023-05-09T11:15:27.636Z,9.27
2023-05-09T11:18:09.864Z,8.88
2023-05-09T11:20:45.455Z,9.70
2023-05-09T11:23:12.585Z,9.95
2023-05-09T11:25:39.935Z,9.55
2023-05-09T11:28:06.465Z,9.35
2023-05-09T11:30:42.576Z,9.50
2023-05-09T11:36:19.042Z,9.85
2023-05-09T11:38:47.973Z,9.07
2023-05-09T11:41:15.799Z,8.73
2023-05-09T11:43:44.829Z,8.63
2023-05-09T11:46:12.694Z,7.82
2023-05-09T11:48:41.869Z,7.40
2023-05-09T11:51:16.372Z,7.82
2023-05-09T11:53:46.853Z,7.90
2023-05-09T11:56:14.556Z,7.68
2023-05-09T11:58:42.153Z,8.02
2023-05-09T12:01:11.190Z,8.73
2023-05-09T12:03:45.248Z,8.77
2023-05-09T12:06:17.260Z,8.73
2023-05-09T12:08:46.244Z,8.32
2023-05-09T12:11:14.937Z,8.30
2023-05-09T12:13:49.941Z,8.00
2023-05-09T12:16:18.261Z,8.05
2023-05-09T12:18:52.571Z,8.50
2023-05-09T12:21:20.532Z,8.52
2023-05-09T12:23:50.632Z,8.90
2023-05-09T12:26:18.205Z,8.65
2023-05-09T12:28:45.181Z,8.70
2023-05-09T12:31:12.877Z,8.85
2023-05-09T12:33:39.711Z,7.95
2023-05-09T12:36:11.595Z,9.30
2023-05-09T12:38:39.212Z,8.27
2023-05-09T12:41:29.607Z,8.18
2023-05-09T12:43:57.353Z,8.32
2023-05-09T12:46:24.317Z,8.45
2023-05-09T12:48:51.724Z,7.72
2023-05-09T12:51:20.755Z,7.70
2023-05-09T12:53:47.827Z,7.65
2023-05-09T12:56:25.092Z,7.82
2023-05-09T12:58:55.878Z,6.80
2023-05-09T13:01:29.871Z,7.30
2023-05-09T13:04:05.746Z,7.68
2023-05-09T13:06:33.164Z,6.65
2023-05-09T13:09:05.377Z,6.45
2023-05-09T13:11:32.118Z,7.07
2023-05-09T13:13:58.870Z,6.70
2023-05-09T13:16:25.521Z,6.40
2023-05-09T13:18:52.076Z,6.25
2023-05-09T13:21:19.261Z,6.70
2023-05-09T13:23:46.030Z,6.20
2023-05-09T13:26:12.610Z,7.05
2023-05-09T13:28:39.162Z,6.72
2023-05-09T13:31:06.642Z,7.35
2023-05-09T13:33:33.331Z,7.40
2023-05-09T13:35:59.898Z,7.05
2023-05-09T13:38:27.002Z,6.40
2023-05-09T13:40:53.460Z,6.97
2023-05-09T13:43:19.922Z,6.60
2023-05-09T13:45:46.494Z,6.53
2023-05-09T13:48:13.087Z,6.25
2023-05-09T13:50:40.119Z,5.65
2023-05-09T13:53:06.758Z,7.25
2023-05-09T13:55:34.490Z,5.80
2023-05-09T13:58:01.457Z,5.57
2023-05-09T14:00:27.909Z,5.55
2023-05-09T14:02:54.494Z,5.43
2023-05-09T14:05:21.083Z,5.10
2023-05-09T14:07:47.660Z,5.35
2023-05-09T14:10:14.380Z,5.57
2023-05-09T14:12:44.029Z,5.78
2023-05-09T14:15:11.237Z,5.75
2023-05-09T14:17:37.961Z,5.15
2023-05-09T14:20:05.186Z,6.03
2023-05-09T14:22:31.998Z,5.97
2023-05-09T14:24:58.624Z,6.07
2023-05-09T14:27:26.194Z,6.07
2023-05-09T14:29:53.945Z,5.53
2023-05-09T14:32:20.911Z,6.53
2023-05-09T14:34:49.420Z,7.68
2023-05-09T14:37:16.202Z,6.28
2023-05-09T14:39:45.263Z,6.93
2023-05-09T14:42:13.855Z,7.75
2023-05-09T14:44:41.360Z,7.60
2023-05-09T14:47:11.900Z,6.90
2023-05-09T14:49:41.437Z,7.75
2023-05-09T14:52:08.001Z,7.20
2023-05-09T14:54:34.824Z,7.88
2023-05-09T14:57:04.177Z,7.65
2023-05-09T14:59:31.059Z,7.18
2023-05-09T15:01:57.547Z,6.93
2023-05-09T15:04:28.111Z,6.18
2023-05-09T15:06:54.812Z,6.80
2023-05-09T15:09:21.475Z,7.15
2023-05-09T15:11:49.238Z,5.90
2023-05-09T15:14:16.725Z,5.82
2023-05-09T15:16:43.568Z,5.75
2023-05-09T15:19:10.259Z,6.07
2023-05-09T15:21:36.799Z,6.00
2023-05-09T15:24:04.682Z,6.03
2023-05-09T15:26:31.232Z,6.53
2023-05-09T15:28:57.747Z,5.70
2023-05-09T15:31:25.466Z,5.57
2023-05-09T15:33:52.057Z,5.55
2023-05-09T15:36:18.593Z,6.30
2023-05-09T15:38:48.990Z,6.10
2023-05-09T15:41:19.649Z,6.43
2023-05-09T15:43:46.133Z,6.32
2023-05-09T15:46:12.656Z,6.07
2023-05-09T15:48:39.200Z,6.15
2023-05-09T15:51:06.360Z,6.40
2023-05-09T15:53:32.885Z,5.88
2023-05-09T15:55:59.419Z,6.35
2023-05-09T15:58:26.012Z,6.50
2023-05-09T16:00:52.986Z,6.45
2023-05-09T16:03:19.793Z,7.07
2023-05-09T16:05:46.433Z,7.38
2023-05-09T16:08:13.050Z,7.35
2023-05-09T16:10:40.367Z,6.47
2023-05-09T16:13:07.395Z,7.18
2023-05-09T16:15:34.026Z,6.90
2023-05-09T16:18:00.519Z,7.32
2023-05-09T16:20:27.252Z,7.38
2023-05-09T16:22:53.754Z,6.75
2023-05-09T16:25:20.250Z,7.57
2023-05-09T16:27:46.699Z,8.25
2023-05-09T16:30:14.446Z,8.40
2023-05-09T16:32:41.059Z,8.48
2023-05-09T16:35:08.361Z,7.95
2023-05-09T16:37:35.716Z,8.20
2023-05-09T16:40:02.966Z,8.23
2023-05-09T16:42:29.566Z,8.23
2023-05-09T16:44:57.370Z,8.60
2023-05-09T16:47:24.016Z,8.25
2023-05-09T16:49:50.643Z,8.77
2023-05-09T16:52:17.167Z,8.30
2023-05-09T16:54:43.666Z,9.27
2023-05-09T16:57:10.150Z,10.00
2023-05-09T16:59:37.148Z,8.88
2023-05-09T17:02:04.425Z,9.63
2023-05-09T17:04:31.331Z,10.45
2023-05-09T17:06:57.928Z,9.48
2023-05-09T17:09:24.468Z,9.43
2023-05-09T17:11:51.016Z,10.20
2023-05-09T17:14:17.547Z,9.40
2023-05-09T17:16:44.216Z,9.43
2023-05-09T17:19:10.910Z,9.15
2023-05-09T17:21:41.399Z,9.45
2023-05-09T17:24:09.487Z,9.70
2023-05-09T17:26:36.089Z,9.45
2023-05-09T17:29:03.680Z,9.38
2023-05-09T17:31:30.314Z,9.75
2023-05-09T17:33:57.105Z,9.52
2023-05-09T17:36:23.780Z,10.00
2023-05-09T17:38:50.255Z,9.73
2023-05-09T17:41:16.943Z,9.43
2023-05-09T17:43:43.366Z,9.68
2023-05-09T17:46:10.102Z,9.65
2023-05-09T17:48:36.910Z,9.93
2023-05-09T17:51:03.556Z,10.23
2023-05-09T17:53:30.585Z,9.75
2023-05-09T17:55:57.772Z,9.90
2023-05-09T17:58:24.280Z,8.90
2023-05-09T18:00:54.935Z,9.45
2023-05-09T18:03:21.630Z,7.88
2023-05-09T18:05:48.685Z,6.50
2023-05-09T18:08:15.204Z,4.80
2023-05-09T18:10:41.734Z,4.25
2023-05-09T18:13:08.262Z,3.20
2023-05-09T18:15:37.998Z,4.07
2023-05-09T18:18:06.546Z,4.05
2023-05-09T18:20:33.848Z,4.32
2023-05-09T18:23:00.740Z,3.47
2023-05-09T18:25:27.518Z,3.03
2023-05-09T18:27:54.071Z,3.22
2023-05-09T18:30:21.872Z,3.25
2023-05-09T18:32:48.552Z,2.70
2023-05-09T18:35:15.881Z,3.00
2023-05-09T18:37:42.509Z,2.65
2023-05-09T18:40:14.740Z,2.33
2023-05-09T18:42:42.158Z,2.65
2023-05-09T18:45:10.456Z,3.17
2023-05-09T18:47:38.067Z,2.70
2023-05-09T18:50:07.043Z,2.70
2023-05-09T18:52:34.349Z,3.35
2023-05-09T18:55:00.919Z,2.50
2023-05-09T18:57:28.221Z,3.28
2023-05-09T18:59:55.814Z,2.90
2023-05-09T19:02:23.513Z,2.75
2023-05-09T19:04:51.428Z,2.58
2023-05-09T19:07:18.263Z,2.80
2023-05-09T19:09:44.819Z,2.40
2023-05-09T19:12:11.296Z,2.58
2023-05-09T19:14:37.954Z,2.28
2023-05-09T19:17:05.664Z,2.40
2023-05-09T19:19:32.410Z,2.40
2023-05-09T19:22:00.004Z,2.83
2023-05-09T19:24:26.578Z,2.72
2023-05-09T19:26:53.157Z,3.00
2023-05-09T19:29:19.654Z,2.33
2023-05-09T19:31:46.169Z,2.13
2023-05-09T19:34:12.671Z,3.17
2023-05-09T19:36:39.223Z,3.03
2023-05-09T19:39:05.752Z,6.90
2023-05-09T19:41:32.323Z,3.08
2023-05-09T19:43:59.350Z,2.63
2023-05-09T19:46:26.112Z,2.65
2023-05-09T19:48:52.698Z,2.15
2023-05-09T19:51:19.276Z,2.13
2023-05-09T19:53:46.907Z,2.17
2023-05-09T19:56:13.772Z,2.75
2023-05-09T19:58:40.335Z,2.38
2023-05-09T20:01:07.233Z,2.45
2023-05-09T20:03:38.484Z,2.30
2023-05-09T20:06:05.670Z,2.40
2023-05-09T20:08:32.481Z,2.30
2023-05-09T20:11:00.028Z,2.10
2023-05-09T20:13:27.375Z,2.10
2023-05-09T20:15:54.064Z,2.45
2023-05-09T20:18:20.586Z,2.60
2023-05-09T20:20:47.099Z,2.90
2023-05-09T20:23:13.773Z,2.67
2023-05-09T20:25:40.552Z,2.65
2023-05-09T20:28:07.149Z,2.70
2023-05-09T20:30:33.680Z,2.30
2023-05-09T20:33:01.121Z,2.33
2023-05-09T20:35:27.799Z,1.92
2023-05-09T20:37:54.559Z,2.28
2023-05-09T20:40:21.052Z,2.15
2023-05-09T20:42:47.543Z,2.38
2023-05-09T20:45:14.077Z,1.75
2023-05-09T20:47:40.666Z,2.25
2023-05-09T20:50:08.126Z,2.25
2023-05-09T20:52:34.630Z,2.25
2023-05-09T20:55:01.927Z,2.47
2023-05-09T20:57:28.532Z,2.72
2023-05-09T20:59:55.098Z,2.40
2023-05-09T21:02:21.847Z,3.17
2023-05-09T21:04:48.497Z,2.95
2023-05-09T21:07:18.938Z,2.67
2023-05-09T21:09:47.422Z,2.70
2023-05-09T21:12:13.932Z,3.08
2023-05-09T21:14:40.856Z,2.53
2023-05-09T21:17:07.441Z,2.35
2023-05-09T21:19:34.156Z,2.15
2023-05-09T21:22:00.710Z,2.45
2023-05-09T21:24:27.230Z,2.60
2023-05-09T21:26:53.743Z,2.65
2023-05-09T21:29:20.566Z,2.75
2023-05-09T21:31:47.030Z,2.63
2023-05-09T21:34:13.494Z,2.42
2023-05-09T21:36:40.835Z,2.65
2023-05-09T21:39:11.611Z,3.85
2023-05-09T21:41:39.860Z,2.63
2023-05-09T21:44:07.772Z,2.40
2023-05-09T21:46:35.832Z,2.28
2023-05-09T21:49:02.466Z,2.50
2023-05-09T21:51:29.418Z,2.53
2023-05-09T21:53:55.993Z,2.33
2023-05-09T21:56:23.118Z,2.45
2023-05-09T21:58:49.650Z,3.08
2023-05-09T22:01:17.048Z,2.50
2023-05-09T22:03:54.653Z,2.45
2023-05-09T22:06:21.320Z,2.40
2023-05-09T22:08:47.841Z,3.22
2023-05-09T22:11:15.126Z,1.25
2023-05-09T22:13:42.409Z,0.90
2023-05-09T22:16:09.056Z,0.85
2023-05-09T22:18:35.598Z,1.23
2023-05-09T22:21:02.052Z,1.25
2023-05-09T22:23:28.590Z,0.70
2023-05-09T22:25:55.149Z,0.90
2023-05-09T22:28:21.694Z,0.90
2023-05-09T22:30:48.212Z,0.80
2023-05-09T22:33:14.711Z,0.80
2023-05-09T22:35:41.354Z,0.80
2023-05-09T22:38:07.820Z,1.20
2023-05-09T22:40:34.476Z,1.13
2023-05-09T22:43:01.101Z,0.90
2023-05-09T22:45:27.707Z,0.70
2023-05-09T22:47:54.225Z,1.05
2023-05-09T22:50:20.916Z,1.30
2023-05-09T22:52:47.471Z,0.82
2023-05-09T22:55:14.145Z,1.00
2023-05-09T22:57:41.367Z,0.70
2023-05-09T23:00:08.577Z,1.00
2023-05-09T23:02:35.145Z,1.00
2023-05-09T23:05:01.703Z,1.00
2023-05-09T23:07:28.173Z,1.40
2023-05-09T23:09:54.668Z,1.27
2023-05-09T23:12:21.150Z,1.15
2023-05-09T23:14:47.652Z,0.90
2023-05-09T23:17:14.198Z,1.10
2023-05-09T23:19:40.752Z,1.00
2023-05-09T23:22:07.214Z,1.10
2023-05-09T23:24:34.449Z,0.93
2023-05-09T23:27:02.460Z,0.90
2023-05-09T23:29:28.974Z,0.80
2023-05-09T23:31:55.620Z,0.90
2023-05-09T23:34:22.187Z,0.90
2023-05-09T23:36:48.781Z,0.93
2023-05-09T23:39:15.696Z,0.95
2023-05-09T23:41:42.248Z,0.90
2023-05-09T23:44:08.933Z,0.80
2023-05-09T23:46:35.583Z,1.10
2023-05-09T23:49:02.110Z,0.90
2023-05-09T23:51:28.539Z,0.80
2023-05-09T23:53:55.070Z,0.90
2023-05-09T23:56:21.556Z,0.80
2023-05-09T23:58:48.032Z,1.00
